createdAt,value
2019-04-23T00:00:03.710Z,61.56
2019-04-23T00:02:53.493Z,61.55
2019-04-23T00:05:36.744Z,61.47
2019-04-23T00:07:58.821Z,61.29
2019-04-23T00:10:28.664Z,61.43
2019-04-23T00:13:10.886Z,61.38
2019-04-23T00:15:53.490Z,61.29
2019-04-23T00:18:23.823Z,61.25
2019-04-23T00:20:57.397Z,61.12
2019-04-23T00:23:32.403Z,61.26
2019-04-23T00:26:05.758Z,61.15
2019-04-23T00:28:36.201Z,61.37
2019-04-23T00:31:06.451Z,61.46
2019-04-23T00:36:03.236Z,61.60
2019-04-23T00:38:39.548Z,61.57
2019-04-23T00:43:54.856Z,61.30
2019-04-23T00:46:09.237Z,61.14
2019-04-23T00:48:45.303Z,61.23
2019-04-23T00:51:09.284Z,61.25
2019-04-23T00:53:40.148Z,61.34
2019-04-23T00:56:32.135Z,61.20
2019-04-23T01:01:18.246Z,60.96
2019-04-23T01:03:50.696Z,60.94
2019-04-23T01:06:19.413Z,61.45
2019-04-23T01:08:50.927Z,61.51
2019-04-23T01:11:20.380Z,61.31
2019-04-23T01:13:50.948Z,61.21
2019-04-23T01:18:54.562Z,61.07
2019-04-23T01:21:11.826Z,61.61
2019-04-23T01:24:02.711Z,61.27
2019-04-23T01:26:50.297Z,61.31
2019-04-23T01:29:28.331Z,61.33
2019-04-23T01:31:57.507Z,61.19
2019-04-23T01:34:31.340Z,61.35
2019-04-23T01:36:56.470Z,61.44
2019-04-23T01:39:32.732Z,61.29
2019-04-23T01:42:18.085Z,61.45
2019-04-23T01:44:37.502Z,61.54
2019-04-23T01:47:09.621Z,61.44
2019-04-23T01:52:08.266Z,61.88
2019-04-23T01:54:38.607Z,62.56
2019-04-23T01:57:10.950Z,62.41
2019-04-23T01:59:39.213Z,62.75
2019-04-23T02:02:12.180Z,62.72
2019-04-23T02:04:44.545Z,63.18
2019-04-23T02:07:12.779Z,63.61
2019-04-23T02:09:48.395Z,64.18
2019-04-23T02:12:22.827Z,64.14
2019-04-23T02:14:51.805Z,65.25
2019-04-23T02:17:25.430Z,65.74
2019-04-23T02:19:51.319Z,66.76
2019-04-23T02:22:51.570Z,67.44
2019-04-23T02:40:59.765Z,69.59
2019-04-23T02:43:20.185Z,68.96
2019-04-23T02:45:59.002Z,69.02
2019-04-23T02:50:45.141Z,69.05
2019-04-23T02:58:38.668Z,69.46
2019-04-23T03:01:15.108Z,69.54
2019-04-23T03:03:33.253Z,69.48
2019-04-23T03:08:36.269Z,70.53
2019-04-23T03:16:38.491Z,71.94
2019-04-23T03:19:15.284Z,72.86
2019-04-23T03:22:18.273Z,72.90
2019-04-23T03:27:31.433Z,74.52
2019-04-23T03:29:55.313Z,74.76
2019-04-23T03:42:23.908Z,77.52
2019-04-23T03:45:09.447Z,79.89
2019-04-23T03:55:03.262Z,84.75
2019-04-23T04:05:13.186Z,90.57
2019-04-23T04:10:08.718Z,96.83
2019-04-23T04:15:41.496Z,100.00
2019-04-23T04:17:48.690Z,100.00
2019-04-23T04:25:37.483Z,100.00
2019-04-23T04:30:25.356Z,100.00
2019-04-23T04:35:22.128Z,100.00
2019-04-23T04:38:10.740Z,100.00
2019-04-23T04:43:11.249Z,100.00
2019-04-23T04:45:42.213Z,100.00
2019-04-23T04:50:26.750Z,100.00
2019-04-23T04:57:58.699Z,100.00
2019-04-23T05:00:43.169Z,100.00
2019-04-23T05:06:01.353Z,100.00
2019-04-23T05:08:13.836Z,100.00
2019-04-23T05:10:54.243Z,100.00
2019-04-23T05:16:04.325Z,100.00
2019-04-23T05:21:08.087Z,100.00
2019-04-23T05:23:45.847Z,100.00
2019-04-23T05:26:22.354Z,100.00
2019-04-23T05:31:20.292Z,100.00
2019-04-23T05:33:52.334Z,100.00
2019-04-23T05:36:32.319Z,100.00
2019-04-23T05:39:02.451Z,100.00
2019-04-23T05:48:59.833Z,100.00
2019-04-23T05:51:38.853Z,100.00
2019-04-23T05:53:58.441Z,100.00
2019-04-23T05:56:32.347Z,100.00
2019-04-23T05:59:06.169Z,100.00
2019-04-23T06:06:45.189Z,100.00
2019-04-23T06:11:57.198Z,100.00
2019-04-23T06:16:55.253Z,100.00
2019-04-23T06:19:18.749Z,100.00
2019-04-23T06:21:57.792Z,100.00
2019-04-23T06:24:23.549Z,100.00
2019-04-23T06:29:25.535Z,100.00
2019-04-23T06:31:48.845Z,100.00
2019-04-23T06:34:26.520Z,100.00
2019-04-23T06:36:51.346Z,100.00
2019-04-23T06:39:23.334Z,100.00
2019-04-23T06:41:56.303Z,100.00
2019-04-23T06:49:37.361Z,100.00
2019-04-23T06:52:10.517Z,100.00
2019-04-23T06:54:42.580Z,100.00
2019-04-23T07:04:45.143Z,100.00
2019-04-23T07:09:35.340Z,100.00
2019-04-23T07:12:08.750Z,100.00
2019-04-23T07:14:53.113Z,100.00
2019-04-23T07:17:08.547Z,100.00
2019-04-23T07:19:42.213Z,100.00
2019-04-23T07:24:47.298Z,100.00
2019-04-23T07:27:22.833Z,100.00
2019-04-23T07:29:56.642Z,100.00
2019-04-23T07:32:15.659Z,100.00
2019-04-23T07:34:59.202Z,100.00
2019-04-23T07:37:23.661Z,100.00
2019-04-23T07:40:27.689Z,100.00
2019-04-23T07:46:06.418Z,100.00
2019-04-23T07:48:20.876Z,100.00
2019-04-23T07:51:05.787Z,100.00
2019-04-23T07:53:35.839Z,100.00
2019-04-23T07:58:33.234Z,100.00
2019-04-23T08:01:06.946Z,100.00
2019-04-23T08:06:05.881Z,100.00
2019-04-23T08:08:47.425Z,100.00
2019-04-23T08:11:30.622Z,100.00
2019-04-23T08:18:59.086Z,100.00
2019-04-23T08:21:18.157Z,100.00
2019-04-23T08:24:06.510Z,100.00
2019-04-23T08:26:59.650Z,100.00
2019-04-23T08:29:30.569Z,100.00
2019-04-23T08:32:12.205Z,100.00
2019-04-23T08:35:00.279Z,100.00
2019-04-23T08:37:15.382Z,100.00
2019-04-23T08:39:43.471Z,100.00
2019-04-23T08:42:39.632Z,100.00
2019-04-23T08:48:15.503Z,100.00
2019-04-23T08:50:38.398Z,100.00
2019-04-23T08:53:24.295Z,100.00
2019-04-23T08:55:46.425Z,100.00
2019-04-23T08:58:14.395Z,100.00
2019-04-23T09:08:29.506Z,100.00
2019-04-23T09:11:04.880Z,100.00
2019-04-23T09:13:52.316Z,100.00
2019-04-23T09:16:03.473Z,100.00
2019-04-23T09:18:33.125Z,100.00
2019-04-23T09:21:09.001Z,100.00
2019-04-23T09:23:39.203Z,100.00
2019-04-23T09:26:05.486Z,100.00
2019-04-23T09:32:00.580Z,100.00
2019-04-23T09:34:19.990Z,100.00
2019-04-23T09:37:11.964Z,100.00
2019-04-23T09:39:51.268Z,100.00
2019-04-23T09:42:38.524Z,100.00
2019-04-23T09:45:28.106Z,100.00
2019-04-23T09:48:03.548Z,100.00
2019-04-23T09:50:36.660Z,100.00
2019-04-23T09:53:25.150Z,100.00
2019-04-23T09:55:39.748Z,100.00
2019-04-23T09:58:07.822Z,100.00
2019-04-23T10:00:48.843Z,100.00
2019-04-23T10:03:04.817Z,100.00
2019-04-23T10:05:31.029Z,100.00
2019-04-23T10:08:02.983Z,100.00
2019-04-23T10:10:26.135Z,100.00
2019-04-23T10:12:55.970Z,100.00
2019-04-23T10:15:31.396Z,100.00
2019-04-23T10:17:58.432Z,100.00
2019-04-23T10:20:28.987Z,100.00
2019-04-23T10:23:00.140Z,100.00
2019-04-23T10:25:31.863Z,100.00
2019-04-23T10:28:07.929Z,100.00
2019-04-23T10:30:34.763Z,100.00
2019-04-23T10:33:05.446Z,100.00
2019-04-23T10:35:46.004Z,100.00
2019-04-23T10:38:10.916Z,100.00
2019-04-23T10:40:41.920Z,100.00
2019-04-23T10:43:09.254Z,100.00
2019-04-23T10:46:14.985Z,100.00
2019-04-23T10:51:52.145Z,100.00
2019-04-23T10:56:54.734Z,100.00
2019-04-23T10:59:40.254Z,100.00
2019-04-23T11:07:28.401Z,100.00
2019-04-23T11:10:05.558Z,100.00
2019-04-23T11:13:53.097Z,100.00
2019-04-23T11:19:15.625Z,100.00
2019-04-23T11:21:42.804Z,100.00
2019-04-23T11:24:20.716Z,100.00
2019-04-23T11:26:42.382Z,100.00
2019-04-23T11:29:20.907Z,100.00
2019-04-23T11:32:19.476Z,100.00
2019-04-23T11:34:46.077Z,100.00
2019-04-23T11:39:23.272Z,100.00
2019-04-23T11:41:58.065Z,100.00
2019-04-23T11:54:30.661Z,100.00
2019-04-23T11:57:22.006Z,100.00
2019-04-23T12:02:32.797Z,100.00
2019-04-23T12:05:11.684Z,100.00
2019-04-23T12:07:50.909Z,100.00
2019-04-23T12:13:45.278Z,100.00
2019-04-23T12:16:12.471Z,100.00
2019-04-23T12:18:43.675Z,100.00
2019-04-23T12:21:20.650Z,100.00
2019-04-23T12:26:29.862Z,100.00
2019-04-23T12:28:57.042Z,100.00
2019-04-23T12:31:26.420Z,100.00
2019-04-23T12:33:59.451Z,99.44
2019-04-23T12:36:46.895Z,100.00
2019-04-23T12:39:27.582Z,95.51
2019-04-23T12:41:51.145Z,95.17
2019-04-23T12:44:23.955Z,91.68
2019-04-23T12:46:57.641Z,86.15
2019-04-23T12:49:45.347Z,81.80
2019-04-23T12:52:04.937Z,94.22
2019-04-23T12:54:53.984Z,92.70
2019-04-23T12:57:14.133Z,90.96
2019-04-23T13:02:16.401Z,95.46
2019-04-23T13:07:17.794Z,89.65
2019-04-23T13:09:54.516Z,88.39
2019-04-23T13:12:30.733Z,86.17
2019-04-23T13:15:05.830Z,87.30
2019-04-23T13:17:32.966Z,85.70
2019-04-23T13:19:57.856Z,83.31
2019-04-23T13:22:23.993Z,82.02
2019-04-23T13:25:01.953Z,76.52
2019-04-23T13:27:50.274Z,82.43
2019-04-23T13:30:19.610Z,82.94
2019-04-23T13:35:28.110Z,82.72
2019-04-23T13:37:54.817Z,83.43
2019-04-23T13:40:23.818Z,79.66
2019-04-23T13:45:47.493Z,77.49
2019-04-23T13:48:06.992Z,81.38
2019-04-23T13:50:37.478Z,77.29
2019-04-23T13:53:07.913Z,77.98
2019-04-23T13:55:24.816Z,77.33
2019-04-23T14:02:54.543Z,78.10
2019-04-23T14:05:42.894Z,77.80
2019-04-23T14:08:43.275Z,76.60
2019-04-23T14:10:46.199Z,78.32
2019-04-23T14:13:39.293Z,76.99
2019-04-23T14:18:48.953Z,76.99
2019-04-23T14:20:52.001Z,76.11
2019-04-23T14:26:10.468Z,76.34
2019-04-23T14:28:29.000Z,75.49
2019-04-23T14:30:59.222Z,74.60
2019-04-23T14:33:40.289Z,76.65
2019-04-23T14:36:00.583Z,74.88
2019-04-23T14:38:32.080Z,74.43
2019-04-23T14:41:12.886Z,76.42
2019-04-23T14:43:40.037Z,75.09
2019-04-23T14:48:53.650Z,76.61
2019-04-23T14:51:22.957Z,76.35
2019-04-23T15:03:57.872Z,75.11
2019-04-23T15:06:27.757Z,74.38
2019-04-23T15:09:06.234Z,73.93
2019-04-23T15:14:06.048Z,73.44
2019-04-23T15:16:39.729Z,73.28
2019-04-23T15:19:28.267Z,74.41
2019-04-23T15:29:11.283Z,74.29
2019-04-23T15:34:23.990Z,74.10
2019-04-23T15:37:13.945Z,73.91
2019-04-23T15:39:49.582Z,74.34
2019-04-23T15:42:08.894Z,74.95
2019-04-23T15:44:25.214Z,75.46
2019-04-23T15:47:05.117Z,73.83
2019-04-23T15:49:35.626Z,74.14
2019-04-23T15:52:03.906Z,73.68
2019-04-23T15:57:12.392Z,73.90
2019-04-23T15:59:40.593Z,74.26
2019-04-23T16:01:43.675Z,74.56
2019-04-23T16:04:15.338Z,74.73
2019-04-23T16:06:43.762Z,74.85
2019-04-23T16:09:50.882Z,75.19
2019-04-23T16:12:09.772Z,74.62
2019-04-23T16:15:06.602Z,75.05
2019-04-23T16:17:28.921Z,74.77
2019-04-23T16:25:06.786Z,74.62
2019-04-23T16:27:36.633Z,74.92
2019-04-23T16:33:00.353Z,75.21
2019-04-23T16:38:14.693Z,75.80
2019-04-23T16:40:31.866Z,75.54
2019-04-23T16:43:05.421Z,75.84
2019-04-23T16:48:08.989Z,76.65
2019-04-23T16:53:11.534Z,76.72
2019-04-23T16:58:11.948Z,76.61
2019-04-23T17:00:43.775Z,77.12
2019-04-23T17:03:12.733Z,77.89
2019-04-23T17:05:41.001Z,77.22
2019-04-23T17:10:46.886Z,78.05
2019-04-23T17:13:16.227Z,78.27
2019-04-23T17:15:55.192Z,78.29
2019-04-23T17:18:17.014Z,78.34
2019-04-23T17:20:46.890Z,78.40
2019-04-23T17:23:29.437Z,78.81
2019-04-23T17:25:49.046Z,78.90
2019-04-23T17:28:22.589Z,78.75
2019-04-23T17:31:24.601Z,79.00
2019-04-23T17:36:21.086Z,79.37
2019-04-23T17:38:53.099Z,79.88
2019-04-23T17:41:27.581Z,80.09
2019-04-23T17:44:01.343Z,80.52
2019-04-23T17:46:21.852Z,80.54
2019-04-23T17:48:59.541Z,80.61
2019-04-23T17:51:26.146Z,80.35
2019-04-23T17:54:06.603Z,80.56
2019-04-23T17:56:37.186Z,81.23
2019-04-23T17:59:04.197Z,81.98
2019-04-23T18:01:42.821Z,82.67
2019-04-23T18:06:41.270Z,83.19
2019-04-23T18:09:14.327Z,83.09
2019-04-23T18:11:35.716Z,82.72
2019-04-23T18:14:08.277Z,82.53
2019-04-23T18:19:13.185Z,82.61
2019-04-23T18:24:50.686Z,82.95
2019-04-23T18:27:21.532Z,82.97
2019-04-23T18:35:22.904Z,84.09
2019-04-23T18:38:04.886Z,84.40
2019-04-23T18:40:40.121Z,84.52
2019-04-23T18:48:42.546Z,84.81
2019-04-23T18:51:03.494Z,84.69
2019-04-23T19:04:19.782Z,83.79
2019-04-23T19:09:39.138Z,84.04
2019-04-23T19:12:26.539Z,84.39
2019-04-23T19:14:50.710Z,84.16
2019-04-23T19:17:45.714Z,84.11
2019-04-23T19:19:48.350Z,84.20
2019-04-23T19:22:44.522Z,84.10
2019-04-23T19:24:44.944Z,84.28
2019-04-23T19:27:32.442Z,83.88
2019-04-23T19:30:01.815Z,83.85
2019-04-23T19:32:37.336Z,83.34
2019-04-23T19:35:00.048Z,83.49
2019-04-23T19:37:59.561Z,83.74
2019-04-23T19:40:00.902Z,83.41
2019-04-23T19:42:44.615Z,83.48
2019-04-23T19:45:15.998Z,83.25
2019-04-23T19:47:54.481Z,83.15
2019-04-23T19:50:18.516Z,83.03
2019-04-23T19:53:03.610Z,83.22
2019-04-23T19:55:23.613Z,83.75
2019-04-23T19:57:50.735Z,83.56
2019-04-23T20:00:17.087Z,83.66
2019-04-23T20:05:20.907Z,84.31
2019-04-23T20:08:08.597Z,84.24
2019-04-23T20:10:27.983Z,84.40
2019-04-23T20:12:51.845Z,84.30
2019-04-23T20:15:41.479Z,83.91
2019-04-23T20:17:54.115Z,83.95
2019-04-23T20:20:35.279Z,83.84
2019-04-23T20:22:55.551Z,83.73
2019-04-23T20:28:28.848Z,84.35
2019-04-23T20:31:16.115Z,84.00
2019-04-23T20:31:58.162Z,84.00
2019-04-23T20:36:10.750Z,83.60
2019-04-23T20:43:51.660Z,83.82
2019-04-23T20:46:18.989Z,83.10
2019-04-23T20:49:02.692Z,83.26
2019-04-23T20:51:18.763Z,83.02
2019-04-23T20:53:59.377Z,82.75
2019-04-23T20:56:27.170Z,82.23
2019-04-23T21:01:37.213Z,81.70
2019-04-23T21:04:01.169Z,82.06
2019-04-23T21:06:47.017Z,82.01
2019-04-23T21:11:53.101Z,81.81
2019-04-23T21:16:45.093Z,82.05
2019-04-23T21:19:25.966Z,82.42
2019-04-23T21:22:09.893Z,82.01
2019-04-23T21:24:42.849Z,82.48
2019-04-23T21:27:21.708Z,82.26
2019-04-23T21:29:53.609Z,82.09
2019-04-23T21:32:27.279Z,82.01
2019-04-23T21:35:05.308Z,82.00
2019-04-23T21:37:48.100Z,82.54
2019-04-23T21:43:52.772Z,83.02
2019-04-23T21:48:53.048Z,83.19
2019-04-23T21:53:42.290Z,83.02
2019-04-23T21:58:54.918Z,82.35
2019-04-23T22:01:34.929Z,82.55
2019-04-23T22:04:17.270Z,82.41
2019-04-23T22:11:48.203Z,82.99
2019-04-23T22:16:40.979Z,83.93
2019-04-23T22:19:10.474Z,84.32
2019-04-23T22:21:41.203Z,84.70
2019-04-23T22:29:14.368Z,85.64
2019-04-23T22:36:48.420Z,86.67
2019-04-23T22:39:18.187Z,86.97
2019-04-23T22:41:54.661Z,87.23
2019-04-23T22:44:22.449Z,87.43
2019-04-23T22:46:57.813Z,87.79
2019-04-23T22:49:33.916Z,88.03
2019-04-23T22:52:11.275Z,88.25
2019-04-23T22:54:21.270Z,88.24
2019-04-23T22:57:00.617Z,88.22
2019-04-23T22:59:51.373Z,88.39
2019-04-23T23:02:44.376Z,88.62
2019-04-23T23:05:22.408Z,88.94
2019-04-23T23:07:48.981Z,89.08
2019-04-23T23:15:30.514Z,89.09
2019-04-23T23:17:50.606Z,89.13
2019-04-23T23:20:23.904Z,89.14
2019-04-23T23:25:23.871Z,88.51
2019-04-23T23:27:50.206Z,88.74
2019-04-23T23:30:23.389Z,88.65
2019-04-23T23:32:57.094Z,88.56
2019-04-23T23:35:24.338Z,88.21
2019-04-23T23:37:50.487Z,88.18
2019-04-23T23:40:25.839Z,88.25
2019-04-23T23:43:08.766Z,88.28
2019-04-23T23:45:31.552Z,88.40
2019-04-23T23:50:45.186Z,88.93
2019-04-23T23:53:05.909Z,89.24
2019-04-23T23:55:29.812Z,89.51
2019-04-23T23:58:07.477Z,89.77
